THY1296 OEMA-LTFM
Flight info
| Callsign | THY1296 |
|---|---|
| Flight time | N/A |
| Altitude | 38000 |
| Route | N0485F380 DCT PEGUR Z712 WEJ L677 MENLI/N0488F400 L677 CVO A16 RASDA M855 TOMBI UM855 SISPI DCT |
| Aircraft | B77W/H-SDE1E2E3FGHIJ2J3J4J5M1RWXY/LB1D1 |
Departure
| Time | 2026-04-18 10:20 |
|---|---|
| Airport | Prince Mohammad Bin Abdulaziz Airport (OEMA) |
Arrival
| Time | N/A |
|---|---|
| Airport | İstanbul Airport (LTFM) |
| Time | Latitude | Longitude | Altitude | Speed | Heading |
|---|---|---|---|---|---|
| 2026-04-18 09:39 | 24.55249 | 39.71315 | 2174 ft | 0 kts | 79° |
| 2026-04-18 10:07 | 24.55248 | 39.71311 | 2174 ft | 2 kts | 79° |
| 2026-04-18 10:08 | 24.55246 | 39.71298 | 2174 ft | 0 kts | 79° |
| 2026-04-18 10:08 | 24.55243 | 39.71285 | 2174 ft | 2 kts | 71° |
| 2026-04-18 10:08 | 24.55236 | 39.71270 | 2174 ft | 2 kts | 53° |
| 2026-04-18 10:08 | 24.55226 | 39.71257 | 2174 ft | 2 kts | 39° |
| 2026-04-18 10:09 | 24.55213 | 39.71249 | 2174 ft | 2 kts | 24° |
| 2026-04-18 10:09 | 24.55199 | 39.71243 | 2174 ft | 2 kts | 9° |
| 2026-04-18 10:09 | 24.55183 | 39.71242 | 2174 ft | 2 kts | 355° |
| 2026-04-18 10:09 | 24.55176 | 39.71243 | 2174 ft | 0 kts | 348° |
| 2026-04-18 10:10 | 24.55175 | 39.71243 | 2174 ft | 0 kts | 348° |
| 2026-04-18 10:13 | 24.55177 | 39.71243 | 2174 ft | 0 kts | 348° |
| 2026-04-18 10:13 | 24.55191 | 39.71240 | 2174 ft | 2 kts | 347° |
| 2026-04-18 10:14 | 24.55220 | 39.71225 | 2174 ft | 6 kts | 318° |
| 2026-04-18 10:14 | 24.55237 | 39.71169 | 2174 ft | 9 kts | 269° |
| 2026-04-18 10:14 | 24.55230 | 39.71085 | 2174 ft | 12 kts | 274° |
| 2026-04-18 10:14 | 24.55290 | 39.71022 | 2175 ft | 14 kts | 348° |
| 2026-04-18 10:15 | 24.55400 | 39.70998 | 2175 ft | 17 kts | 349° |
| 2026-04-18 10:15 | 24.55530 | 39.70970 | 2175 ft | 19 kts | 349° |
| 2026-04-18 10:15 | 24.55675 | 39.70938 | 2176 ft | 22 kts | 349° |
| 2026-04-18 10:15 | 24.55835 | 39.70906 | 2176 ft | 24 kts | 349° |
| 2026-04-18 10:16 | 24.55934 | 39.70885 | 2176 ft | 25 kts | 349° |
| 2026-04-18 10:16 | 24.56102 | 39.70849 | 2177 ft | 27 kts | 349° |
| 2026-04-18 10:16 | 24.56296 | 39.70807 | 2178 ft | 29 kts | 349° |
| 2026-04-18 10:16 | 24.56502 | 39.70764 | 2178 ft | 30 kts | 349° |
| 2026-04-18 10:17 | 24.56722 | 39.70718 | 2179 ft | 32 kts | 349° |
| 2026-04-18 10:17 | 24.56951 | 39.70669 | 2180 ft | 34 kts | 349° |
| 2026-04-18 10:17 | 24.57192 | 39.70618 | 2180 ft | 35 kts | 349° |
| 2026-04-18 10:17 | 24.57436 | 39.70567 | 2181 ft | 30 kts | 350° |
| 2026-04-18 10:18 | 24.57560 | 39.70540 | 2181 ft | 14 kts | 348° |
| 2026-04-18 10:18 | 24.57644 | 39.70495 | 2182 ft | 12 kts | 291° |
| 2026-04-18 10:18 | 24.57638 | 39.70401 | 2182 ft | 11 kts | 262° |
| 2026-04-18 10:18 | 24.57590 | 39.70348 | 2182 ft | 10 kts | 186° |
| 2026-04-18 10:19 | 24.57522 | 39.70357 | 2182 ft | 9 kts | 169° |
| 2026-04-18 10:19 | 24.57470 | 39.70368 | 2181 ft | 6 kts | 169° |
| 2026-04-18 10:19 | 24.57458 | 39.70370 | 2181 ft | 2 kts | 169° |
| 2026-04-18 10:19 | 24.57295 | 39.70404 | 2181 ft | 57 kts | 169° |
| 2026-04-18 10:20 | 24.56696 | 39.70531 | 2179 ft | 110 kts | 169° |
| 2026-04-18 10:20 | 24.55751 | 39.70731 | 2177 ft | 162 kts | 169° |
| 2026-04-18 10:20 | 24.54579 | 39.70990 | 2504 ft | 176 kts | 169° |
| 2026-04-18 10:20 | 24.53344 | 39.71267 | 2996 ft | 193 kts | 170° |
| 2026-04-18 10:21 | 24.51982 | 39.71547 | 3707 ft | 209 kts | 171° |
| 2026-04-18 10:21 | 24.50446 | 39.71872 | 4306 ft | 235 kts | 171° |
| 2026-04-18 10:21 | 24.48743 | 39.72235 | 4904 ft | 262 kts | 170° |
| 2026-04-18 10:21 | 24.46891 | 39.72634 | 5817 ft | 268 kts | 171° |
| 2026-04-18 10:22 | 24.45029 | 39.73022 | 6745 ft | 265 kts | 172° |
| 2026-04-18 10:22 | 24.43136 | 39.73419 | 7449 ft | 271 kts | 172° |
| 2026-04-18 10:22 | 24.41163 | 39.73565 | 8179 ft | 274 kts | 184° |
| 2026-04-18 10:22 | 24.39218 | 39.73235 | 8978 ft | 275 kts | 196° |
| 2026-04-18 10:23 | 24.37422 | 39.72463 | 9749 ft | 277 kts | 208° |
| 2026-04-18 10:23 | 24.35763 | 39.71257 | 10393 ft | 285 kts | 218° |
| 2026-04-18 10:23 | 24.34247 | 39.69703 | 10788 ft | 304 kts | 227° |
| 2026-04-18 10:23 | 24.32882 | 39.67706 | 11234 ft | 324 kts | 237° |
| 2026-04-18 10:24 | 24.31844 | 39.65367 | 11683 ft | 344 kts | 248° |
| 2026-04-18 10:24 | 24.31202 | 39.62651 | 12150 ft | 364 kts | 260° |
| 2026-04-18 10:24 | 24.31068 | 39.59747 | 12692 ft | 381 kts | 268° |
| 2026-04-18 10:24 | 24.31006 | 39.56784 | 13477 ft | 389 kts | 266° |
| 2026-04-18 10:25 | 24.30976 | 39.53776 | 14532 ft | 391 kts | 272° |
| 2026-04-18 10:25 | 24.31379 | 39.50772 | 15697 ft | 394 kts | 281° |
| 2026-04-18 10:25 | 24.32241 | 39.47811 | 16870 ft | 398 kts | 290° |
| 2026-04-18 10:25 | 24.33538 | 39.45027 | 17929 ft | 404 kts | 299° |
| 2026-04-18 10:26 | 24.35302 | 39.42432 | 18999 ft | 410 kts | 309° |
| 2026-04-18 10:26 | 24.37428 | 39.40216 | 20045 ft | 416 kts | 317° |
| 2026-04-18 10:26 | 24.39920 | 39.38386 | 21020 ft | 425 kts | 327° |
| 2026-04-18 10:26 | 24.42705 | 39.37038 | 21973 ft | 434 kts | 336° |
| 2026-04-18 10:27 | 24.45772 | 39.36192 | 22971 ft | 440 kts | 343° |
| 2026-04-18 10:27 | 24.48932 | 39.35569 | 23829 ft | 447 kts | 345° |
| 2026-04-18 10:27 | 24.52101 | 39.35008 | 24572 ft | 454 kts | 346° |
| 2026-04-18 10:27 | 24.55325 | 39.34471 | 25405 ft | 459 kts | 345° |
| 2026-04-18 10:28 | 24.58587 | 39.33948 | 26242 ft | 463 kts | 346° |
| 2026-04-18 10:28 | 24.61877 | 39.33434 | 27033 ft | 468 kts | 346° |
| 2026-04-18 10:28 | 24.65148 | 39.32933 | 27757 ft | 474 kts | 346° |
| 2026-04-18 10:28 | 24.68491 | 39.32427 | 28493 ft | 479 kts | 346° |
| 2026-04-18 10:29 | 24.71887 | 39.31918 | 29219 ft | 484 kts | 345° |
| 2026-04-18 10:29 | 24.75325 | 39.31406 | 30037 ft | 487 kts | 345° |
| 2026-04-18 10:29 | 24.78772 | 39.30899 | 31136 ft | 481 kts | 345° |
| 2026-04-18 10:29 | 24.82215 | 39.30395 | 32423 ft | 471 kts | 344° |
| 2026-04-18 10:30 | 24.85529 | 39.29910 | 33552 ft | 463 kts | 343° |
| 2026-04-18 10:30 | 24.88839 | 39.29423 | 34495 ft | 458 kts | 343° |
| 2026-04-18 10:30 | 24.92055 | 39.28880 | 35367 ft | 448 kts | 338° |
| 2026-04-18 10:30 | 24.95129 | 39.27910 | 36119 ft | 436 kts | 330° |
| 2026-04-18 10:31 | 24.98016 | 39.26704 | 36777 ft | 433 kts | 328° |
| 2026-04-18 10:31 | 25.00966 | 39.25447 | 37392 ft | 431 kts | 328° |
| 2026-04-18 10:31 | 25.03906 | 39.24194 | 37914 ft | 431 kts | 328° |
| 2026-04-18 10:32 | 25.09662 | 39.21744 | 37964 ft | 427 kts | 327° |
| 2026-04-18 10:32 | 25.15326 | 39.19333 | 37980 ft | 428 kts | 328° |
| 2026-04-18 10:33 | 25.20508 | 39.16262 | 37993 ft | 416 kts | 314° |
| 2026-04-18 10:33 | 25.24667 | 39.11881 | 38005 ft | 397 kts | 301° |
| 2026-04-18 10:34 | 25.27721 | 39.06947 | 37995 ft | 388 kts | 297° |
| 2026-04-18 10:34 | 25.30691 | 39.01903 | 37990 ft | 392 kts | 297° |
| 2026-04-18 10:35 | 25.33701 | 38.96763 | 37978 ft | 396 kts | 296° |
| 2026-04-18 10:35 | 25.36671 | 38.91685 | 37966 ft | 394 kts | 296° |
| 2026-04-18 10:36 | 25.39675 | 38.86546 | 37952 ft | 395 kts | 297° |
| 2026-04-18 10:36 | 25.42656 | 38.81442 | 37933 ft | 393 kts | 296° |
| 2026-04-18 10:37 | 25.45602 | 38.76376 | 37921 ft | 394 kts | 297° |
| 2026-04-18 10:37 | 25.48580 | 38.71258 | 37910 ft | 396 kts | 296° |
| 2026-04-18 10:38 | 25.51572 | 38.66106 | 37897 ft | 396 kts | 296° |
| 2026-04-18 10:38 | 25.54548 | 38.60961 | 37897 ft | 395 kts | 296° |
| 2026-04-18 10:39 | 25.57513 | 38.55854 | 37895 ft | 394 kts | 296° |
| 2026-04-18 10:39 | 25.60493 | 38.50712 | 37894 ft | 394 kts | 296° |
| 2026-04-18 10:40 | 25.63444 | 38.45591 | 37900 ft | 395 kts | 296° |
| 2026-04-18 10:40 | 25.66417 | 38.40455 | 37898 ft | 396 kts | 296° |
| 2026-04-18 10:41 | 25.69390 | 38.35304 | 37894 ft | 394 kts | 296° |
| 2026-04-18 10:41 | 25.72406 | 38.30068 | 37908 ft | 402 kts | 296° |
| 2026-04-18 10:42 | 25.75479 | 38.24726 | 37886 ft | 412 kts | 295° |
| 2026-04-18 10:42 | 25.78596 | 38.19297 | 37898 ft | 412 kts | 296° |
| 2026-04-18 10:43 | 25.81683 | 38.13926 | 37904 ft | 412 kts | 296° |
| 2026-04-18 10:43 | 25.84784 | 38.08527 | 37906 ft | 412 kts | 295° |
| 2026-04-18 10:44 | 25.87863 | 38.03150 | 37914 ft | 415 kts | 295° |
| 2026-04-18 10:44 | 25.90977 | 37.97712 | 37906 ft | 413 kts | 295° |
| 2026-04-18 10:45 | 25.94049 | 37.92347 | 37930 ft | 411 kts | 296° |
| 2026-04-18 10:45 | 25.97039 | 37.87122 | 37945 ft | 400 kts | 295° |
| 2026-04-18 10:46 | 25.99652 | 37.81629 | 37952 ft | 399 kts | 285° |
| 2026-04-18 10:46 | 26.00483 | 37.78716 | 37964 ft | 387 kts | 280° |
| 2026-04-18 10:46 | 26.01003 | 37.75795 | 37964 ft | 379 kts | 276° |
| 2026-04-18 10:47 | 26.01884 | 37.70049 | 37951 ft | 378 kts | 276° |
| 2026-04-18 10:47 | 26.02724 | 37.64256 | 37936 ft | 378 kts | 277° |
| 2026-04-18 10:48 | 26.03528 | 37.58496 | 37917 ft | 379 kts | 276° |
| 2026-04-18 10:48 | 26.04323 | 37.52693 | 37908 ft | 377 kts | 276° |
| 2026-04-18 10:49 | 26.05106 | 37.46898 | 37892 ft | 380 kts | 276° |
| 2026-04-18 10:49 | 26.05887 | 37.41094 | 37875 ft | 379 kts | 276° |
| 2026-04-18 10:50 | 26.06662 | 37.35298 | 37860 ft | 375 kts | 276° |
| 2026-04-18 10:50 | 26.07435 | 37.29495 | 37879 ft | 380 kts | 275° |
| 2026-04-18 10:51 | 26.08214 | 37.23634 | 37856 ft | 375 kts | 275° |
| 2026-04-18 10:51 | 26.08977 | 37.17864 | 37859 ft | 377 kts | 276° |
| 2026-04-18 10:52 | 26.09746 | 37.12040 | 37847 ft | 377 kts | 275° |
| 2026-04-18 10:52 | 26.10511 | 37.06214 | 37830 ft | 377 kts | 275° |
| 2026-04-18 10:53 | 26.11279 | 37.00355 | 37824 ft | 375 kts | 275° |
| 2026-04-18 10:53 | 26.12038 | 36.94543 | 37822 ft | 376 kts | 276° |
| 2026-04-18 10:54 | 26.12786 | 36.88797 | 37820 ft | 375 kts | 275° |
| 2026-04-18 10:54 | 26.13532 | 36.83049 | 37825 ft | 376 kts | 276° |
| 2026-04-18 10:55 | 26.14275 | 36.77308 | 37819 ft | 375 kts | 275° |
| 2026-04-18 10:55 | 26.15020 | 36.71535 | 37810 ft | 376 kts | 276° |
| 2026-04-18 10:56 | 26.15754 | 36.65831 | 37809 ft | 373 kts | 275° |
| 2026-04-18 10:56 | 26.16495 | 36.60039 | 37809 ft | 375 kts | 275° |
| 2026-04-18 10:57 | 26.17327 | 36.54304 | 37797 ft | 377 kts | 280° |
| 2026-04-18 10:57 | 26.19131 | 36.48805 | 37795 ft | 384 kts | 290° |
| 2026-04-18 10:58 | 26.22143 | 36.43745 | 37797 ft | 396 kts | 301° |
| 2026-04-18 10:58 | 26.26020 | 36.39302 | 37808 ft | 402 kts | 305° |
| 2026-04-18 10:59 | 26.29965 | 36.34856 | 37804 ft | 405 kts | 304° |
| 2026-04-18 10:59 | 26.33900 | 36.30368 | 37833 ft | 402 kts | 303° |
| 2026-04-18 11:00 | 26.37787 | 36.25903 | 37831 ft | 403 kts | 304° |
| 2026-04-18 11:00 | 26.41682 | 36.21414 | 37834 ft | 401 kts | 303° |
| 2026-04-18 11:01 | 26.45556 | 36.16936 | 37824 ft | 401 kts | 303° |
| 2026-04-18 11:01 | 26.49433 | 36.12448 | 37830 ft | 399 kts | 303° |
| 2026-04-18 11:02 | 26.55242 | 36.05711 | 37829 ft | 401 kts | 304° |
| 2026-04-18 11:02 | 26.59084 | 36.01254 | 37828 ft | 396 kts | 303° |
| 2026-04-18 11:03 | 26.62932 | 35.96776 | 37818 ft | 403 kts | 303° |
| 2026-04-18 11:03 | 26.66841 | 35.92231 | 37816 ft | 399 kts | 303° |
| 2026-04-18 11:04 | 26.70712 | 35.87719 | 37810 ft | 402 kts | 303° |
| 2026-04-18 11:04 | 26.74581 | 35.83210 | 37803 ft | 400 kts | 303° |
| 2026-04-18 11:05 | 26.78447 | 35.78695 | 37806 ft | 403 kts | 303° |
| 2026-04-18 11:05 | 26.82323 | 35.74169 | 37804 ft | 399 kts | 303° |
| 2026-04-18 11:06 | 26.86179 | 35.69655 | 37805 ft | 403 kts | 303° |
| 2026-04-18 11:06 | 26.90054 | 35.65121 | 37805 ft | 400 kts | 303° |
| 2026-04-18 11:07 | 26.93882 | 35.60633 | 37808 ft | 402 kts | 303° |
| 2026-04-18 11:07 | 26.97735 | 35.56111 | 37815 ft | 402 kts | 303° |
| 2026-04-18 11:08 | 27.01594 | 35.51580 | 37805 ft | 398 kts | 303° |
| 2026-04-18 11:08 | 27.05408 | 35.47095 | 37802 ft | 401 kts | 303° |
| 2026-04-18 11:09 | 27.09251 | 35.42574 | 37799 ft | 398 kts | 303° |
| 2026-04-18 11:09 | 27.13126 | 35.38005 | 37794 ft | 401 kts | 303° |
| 2026-04-18 11:10 | 27.16964 | 35.33480 | 37827 ft | 399 kts | 303° |
| 2026-04-18 11:10 | 27.20787 | 35.28964 | 37828 ft | 401 kts | 302° |
| 2026-04-18 11:11 | 27.24649 | 35.24401 | 37826 ft | 399 kts | 303° |
| 2026-04-18 11:11 | 27.28462 | 35.19890 | 37825 ft | 397 kts | 302° |
| 2026-04-18 11:12 | 27.32252 | 35.15398 | 37821 ft | 399 kts | 302° |
| 2026-04-18 11:12 | 27.36110 | 35.10822 | 37815 ft | 401 kts | 303° |
| 2026-04-18 11:13 | 27.39927 | 35.06292 | 37815 ft | 401 kts | 302° |
| 2026-04-18 11:13 | 27.43748 | 35.01751 | 37815 ft | 402 kts | 302° |
| 2026-04-18 11:14 | 27.47586 | 34.97187 | 37807 ft | 399 kts | 302° |
| 2026-04-18 11:14 | 27.51427 | 34.92610 | 37805 ft | 403 kts | 302° |
| 2026-04-18 11:15 | 27.55498 | 34.88257 | 37797 ft | 403 kts | 306° |
| 2026-04-18 11:15 | 27.59642 | 34.83920 | 37797 ft | 407 kts | 306° |
| 2026-04-18 11:16 | 27.63777 | 34.79572 | 37797 ft | 407 kts | 305° |
| 2026-04-18 11:16 | 27.67879 | 34.75241 | 37789 ft | 406 kts | 306° |
| 2026-04-18 11:17 | 27.72006 | 34.70870 | 37783 ft | 407 kts | 306° |
| 2026-04-18 11:17 | 27.76121 | 34.66508 | 37791 ft | 410 kts | 305° |
| 2026-04-18 11:18 | 27.80266 | 34.62109 | 37787 ft | 406 kts | 305° |
| 2026-04-18 11:18 | 27.84380 | 34.57736 | 37789 ft | 408 kts | 306° |
| 2026-04-18 11:19 | 27.88512 | 34.53339 | 37795 ft | 408 kts | 306° |
| 2026-04-18 11:19 | 27.92660 | 34.48920 | 37795 ft | 408 kts | 306° |
| 2026-04-18 11:20 | 27.96799 | 34.44508 | 37793 ft | 410 kts | 306° |
| 2026-04-18 11:20 | 28.00784 | 34.39968 | 37802 ft | 398 kts | 299° |
| 2026-04-18 11:21 | 28.04301 | 34.35114 | 37805 ft | 399 kts | 299° |
| 2026-04-18 11:21 | 28.07815 | 34.30253 | 37850 ft | 397 kts | 298° |
| 2026-04-18 11:22 | 28.11330 | 34.25376 | 37854 ft | 404 kts | 299° |
| 2026-04-18 11:22 | 28.14845 | 34.20510 | 37878 ft | 397 kts | 299° |
| 2026-04-18 11:23 | 28.18390 | 34.15581 | 37907 ft | 404 kts | 299° |
| 2026-04-18 11:23 | 28.21880 | 34.10737 | 37935 ft | 400 kts | 299° |
| 2026-04-18 11:24 | 28.25421 | 34.05808 | 37971 ft | 402 kts | 300° |
| 2026-04-18 11:24 | 28.28931 | 34.00923 | 37993 ft | 399 kts | 298° |
| 2026-04-18 11:25 | 28.32428 | 33.96045 | 37988 ft | 400 kts | 300° |
| 2026-04-18 11:25 | 28.35937 | 33.91146 | 37973 ft | 401 kts | 299° |
| 2026-04-18 11:26 | 28.39455 | 33.86230 | 37949 ft | 400 kts | 299° |
| 2026-04-18 11:26 | 28.42961 | 33.81325 | 37938 ft | 400 kts | 299° |
| 2026-04-18 11:27 | 28.46455 | 33.76431 | 37920 ft | 400 kts | 299° |
| 2026-04-18 11:27 | 28.49967 | 33.71505 | 37909 ft | 399 kts | 300° |
| 2026-04-18 11:28 | 28.53429 | 33.66644 | 37905 ft | 401 kts | 299° |
| 2026-04-18 11:28 | 28.56949 | 33.61707 | 37887 ft | 399 kts | 300° |
| 2026-04-18 11:29 | 28.60453 | 33.56789 | 37884 ft | 404 kts | 300° |
| 2026-04-18 11:29 | 28.63959 | 33.51868 | 37871 ft | 399 kts | 300° |
| 2026-04-18 11:30 | 28.67461 | 33.46928 | 37868 ft | 400 kts | 299° |
| 2026-04-18 11:30 | 28.70968 | 33.41976 | 37858 ft | 401 kts | 299° |
| 2026-04-18 11:31 | 28.74449 | 33.37058 | 37854 ft | 401 kts | 299° |
| 2026-04-18 11:31 | 28.77980 | 33.32060 | 37865 ft | 402 kts | 299° |
| 2026-04-18 11:32 | 28.81474 | 33.27113 | 37858 ft | 401 kts | 299° |
| 2026-04-18 11:32 | 28.84996 | 33.22118 | 37780 ft | 400 kts | 299° |
| 2026-04-18 11:33 | 28.86725 | 33.19663 | 37883 ft | 402 kts | 299° |
| 2026-04-18 11:33 | 28.88486 | 33.17161 | 37839 ft | 402 kts | 299° |
| 2026-04-18 11:33 | 28.91967 | 33.12213 | 37841 ft | 402 kts | 299° |
| 2026-04-18 11:34 | 28.95481 | 33.07213 | 37833 ft | 400 kts | 298° |
| 2026-04-18 11:34 | 28.98968 | 33.02239 | 37834 ft | 404 kts | 299° |
| 2026-04-18 11:35 | 29.02463 | 32.97256 | 37827 ft | 400 kts | 299° |
| 2026-04-18 11:35 | 29.05952 | 32.92271 | 37826 ft | 402 kts | 298° |
| 2026-04-18 11:36 | 29.09449 | 32.87268 | 37828 ft | 404 kts | 299° |
| 2026-04-18 11:36 | 29.12987 | 32.82200 | 37824 ft | 406 kts | 299° |
| 2026-04-18 11:37 | 29.16501 | 32.77166 | 37819 ft | 401 kts | 299° |
| 2026-04-18 11:37 | 29.20006 | 32.72130 | 37817 ft | 406 kts | 299° |
| 2026-04-18 11:38 | 29.23500 | 32.67112 | 37812 ft | 402 kts | 299° |
| 2026-04-18 11:38 | 29.27016 | 32.62049 | 37816 ft | 407 kts | 299° |
| 2026-04-18 11:39 | 29.30529 | 32.56969 | 37820 ft | 406 kts | 299° |
| 2026-04-18 11:39 | 29.34024 | 32.51875 | 37819 ft | 408 kts | 299° |
| 2026-04-18 11:40 | 29.37538 | 32.46755 | 37821 ft | 405 kts | 298° |
| 2026-04-18 11:40 | 29.41023 | 32.41668 | 37844 ft | 407 kts | 298° |
| 2026-04-18 11:41 | 29.44505 | 32.36579 | 37860 ft | 407 kts | 299° |
| 2026-04-18 11:41 | 29.48018 | 32.31440 | 37901 ft | 407 kts | 298° |
| 2026-04-18 11:42 | 29.51525 | 32.26303 | 37908 ft | 408 kts | 298° |
| 2026-04-18 11:42 | 29.55026 | 32.21168 | 37908 ft | 407 kts | 298° |
| 2026-04-18 11:43 | 29.58518 | 32.16040 | 37897 ft | 408 kts | 298° |
| 2026-04-18 11:43 | 29.62048 | 32.10847 | 37892 ft | 413 kts | 298° |
| 2026-04-18 11:44 | 29.65659 | 32.05521 | 37888 ft | 429 kts | 298° |
| 2026-04-18 11:44 | 29.69351 | 32.00081 | 37880 ft | 435 kts | 299° |
| 2026-04-18 11:45 | 29.73057 | 31.94618 | 37870 ft | 433 kts | 298° |
| 2026-04-18 11:45 | 29.76767 | 31.89135 | 37873 ft | 433 kts | 298° |
| 2026-04-18 11:46 | 29.80432 | 31.83607 | 37866 ft | 431 kts | 298° |
| 2026-04-18 11:46 | 29.83988 | 31.78044 | 37866 ft | 431 kts | 298° |
| 2026-04-18 11:47 | 29.87563 | 31.72452 | 37863 ft | 433 kts | 298° |
| 2026-04-18 11:47 | 29.91110 | 31.66907 | 37859 ft | 432 kts | 298° |
| 2026-04-18 11:48 | 29.94714 | 31.61317 | 37858 ft | 436 kts | 298° |
| 2026-04-18 11:48 | 29.98335 | 31.55722 | 37851 ft | 435 kts | 298° |
| 2026-04-18 11:49 | 30.01917 | 31.50177 | 37855 ft | 434 kts | 298° |
| 2026-04-18 11:49 | 30.05792 | 31.44696 | 37836 ft | 444 kts | 306° |
| 2026-04-18 11:50 | 30.10805 | 31.40237 | 37827 ft | 466 kts | 319° |
| 2026-04-18 11:50 | 30.16889 | 31.37272 | 37814 ft | 489 kts | 334° |
| 2026-04-18 11:51 | 30.20249 | 31.36473 | 37814 ft | 501 kts | 340° |
| 2026-04-18 11:51 | 30.23744 | 31.35900 | 37821 ft | 503 kts | 341° |
| 2026-04-18 11:51 | 30.30649 | 31.34760 | 37823 ft | 503 kts | 340° |
| 2026-04-18 11:52 | 30.37588 | 31.33556 | 37828 ft | 503 kts | 340° |
| 2026-04-18 11:52 | 30.44493 | 31.32325 | 37816 ft | 503 kts | 340° |
| 2026-04-18 11:53 | 30.51381 | 31.31079 | 37807 ft | 501 kts | 340° |
| 2026-04-18 11:53 | 30.58256 | 31.29825 | 37801 ft | 503 kts | 340° |
| 2026-04-18 11:54 | 30.65202 | 31.28553 | 37800 ft | 500 kts | 340° |
| 2026-04-18 11:54 | 30.72062 | 31.27290 | 37800 ft | 502 kts | 340° |
| 2026-04-18 11:55 | 30.79000 | 31.26009 | 37801 ft | 503 kts | 340° |
| 2026-04-18 11:55 | 30.85897 | 31.24735 | 37792 ft | 500 kts | 340° |
| 2026-04-18 11:56 | 30.92779 | 31.23461 | 37797 ft | 501 kts | 340° |
| 2026-04-18 11:56 | 30.99666 | 31.22184 | 37797 ft | 500 kts | 340° |
| 2026-04-18 11:57 | 31.06576 | 31.20897 | 37806 ft | 504 kts | 340° |
| 2026-04-18 11:57 | 31.13510 | 31.19609 | 37805 ft | 505 kts | 340° |
| 2026-04-18 11:58 | 31.20414 | 31.18323 | 37810 ft | 502 kts | 340° |
| 2026-04-18 11:58 | 31.27377 | 31.17022 | 37813 ft | 505 kts | 340° |
| 2026-04-18 11:59 | 31.34395 | 31.15709 | 37809 ft | 504 kts | 341° |
| 2026-04-18 11:59 | 31.37821 | 31.15072 | 37816 ft | 493 kts | 341° |
| 2026-04-18 11:59 | 31.41141 | 31.14457 | 37812 ft | 480 kts | 340° |
| 2026-04-18 12:00 | 31.47706 | 31.13221 | 37817 ft | 482 kts | 340° |
| 2026-04-18 12:00 | 31.54371 | 31.11980 | 37806 ft | 487 kts | 342° |
| 2026-04-18 12:01 | 31.61204 | 31.11253 | 38534 ft | 495 kts | 345° |
| 2026-04-18 12:01 | 31.64641 | 31.10915 | 39257 ft | 488 kts | 345° |
| 2026-04-18 12:01 | 31.68016 | 31.10574 | 39767 ft | 486 kts | 345° |
| 2026-04-18 12:02 | 31.71381 | 31.10225 | 39816 ft | 491 kts | 345° |
| 2026-04-18 12:02 | 31.78195 | 31.09512 | 39819 ft | 488 kts | 345° |
| 2026-04-18 12:03 | 31.85018 | 31.08788 | 39824 ft | 490 kts | 345° |
| 2026-04-18 12:03 | 31.91830 | 31.08060 | 39831 ft | 491 kts | 345° |
| 2026-04-18 12:04 | 31.98667 | 31.07327 | 39831 ft | 490 kts | 345° |
| 2026-04-18 12:04 | 32.05513 | 31.06588 | 39823 ft | 491 kts | 345° |
| 2026-04-18 12:05 | 32.12314 | 31.05841 | 39819 ft | 491 kts | 345° |
| 2026-04-18 12:05 | 32.19167 | 31.05088 | 39815 ft | 491 kts | 345° |
| 2026-04-18 12:06 | 32.25957 | 31.04339 | 39815 ft | 492 kts | 345° |
| 2026-04-18 12:06 | 32.32731 | 31.03593 | 39816 ft | 490 kts | 345° |
| 2026-04-18 12:07 | 32.39510 | 31.02844 | 39807 ft | 490 kts | 345° |
| 2026-04-18 12:07 | 32.46313 | 31.02093 | 39808 ft | 487 kts | 345° |
| 2026-04-18 12:08 | 32.52032 | 31.01457 | 39806 ft | 491 kts | 345° |